Time;durP1;ratioP1;P1;durP2;ratioP2;P2;SDS_P1;SDS_P2;PMS_P1;PMS_P2;Temp;Humidity;BMP_temperature;BMP_pressure;BME280_temperature;BME280_humidity;BME280_pressure;Samples;Min_cycle;Max_cycle;Signal;HPM_P1;HPM_P2
2022/01/02 00:01:45;;;;;;;;;12.50;10.00;;;;;21.63;45.00;101610.63;5068391;28;51972;-46
2022/01/02 00:04:20;;;;;;;;;9.75;9.75;;;;;21.62;45.38;101611.69;5065161;28;51207;-52
2022/01/02 00:06:50;;;;;;;;;10.25;10.00;;;;;21.61;45.24;101615.50;5059492;28;51026;-49
2022/01/02 00:09:36;;;;;;;;;11.50;8.75;;;;;21.60;45.28;101620.19;5064890;27;51174;-50
2022/01/02 00:12:04;;;;;;;;;11.75;9.75;;;;;21.59;45.57;101603.84;5067013;28;51878;-49
2022/01/02 00:14:33;;;;;;;;;11.00;11.00;;;;;21.57;45.62;101598.56;5066024;28;50888;-49
2022/01/02 00:16:58;;;;;;;;;12.50;9.50;;;;;21.56;45.05;101599.59;5065921;28;51334;-50
2022/01/02 00:19:30;;;;;;;;;10.75;10.75;;;;;21.56;45.08;101602.34;5065387;28;51079;-48
2022/01/02 00:22:02;;;;;;;;;11.25;10.25;;;;;21.55;45.38;101602.56;5059185;28;52067;-48
2022/01/02 00:24:30;;;;;;;;;10.75;8.25;;;;;21.54;45.11;101596.19;5063513;28;51046;-50
2022/01/02 00:26:57;;;;;;;;;11.75;11.25;;;;;21.53;45.28;101608.28;5069150;27;51006;-48
2022/01/02 00:29:23;;;;;;;;;9.50;8.50;;;;;21.52;45.55;101619.53;5064091;28;51336;-49
2022/01/02 00:31:49;;;;;;;;;11.25;9.50;;;;;21.52;45.06;101623.13;5064181;28;51682;-51
2022/01/02 00:34:15;;;;;;;;;10.50;8.25;;;;;21.50;45.07;101617.00;5068855;28;51009;-48
2022/01/02 00:36:40;;;;;;;;;12.25;10.75;;;;;21.50;45.65;101616.13;5064075;28;51198;-49
2022/01/02 00:39:07;;;;;;;;;10.50;10.25;;;;;21.50;45.60;101610.63;5064086;28;51085;-45
2022/01/02 00:41:43;;;;;;;;;13.50;12.25;;;;;21.48;45.42;101601.72;5062947;28;52284;-49
2022/01/02 00:44:46;;;;;;;;;9.00;9.00;;;;;21.47;45.25;101594.53;5067877;27;51092;-50
2022/01/02 00:47:32;;;;;;;;;10.25;9.25;;;;;21.46;45.54;101592.78;5068581;28;51203;-48
2022/01/02 00:50:10;;;;;;;;;11.50;9.50;;;;;21.44;44.81;101612.31;5070025;28;51023;-48
2022/01/02 00:52:42;;;;;;;;;9.75;7.25;;;;;21.43;45.21;101609.75;5065771;28;51888;-49
2022/01/02 00:55:10;;;;;;;;;10.75;10.00;;;;;21.43;45.73;101618.03;5067234;28;51460;-46
2022/01/02 00:57:42;;;;;;;;;9.00;8.75;;;;;21.42;45.20;101619.09;5064974;28;51092;-47
2022/01/02 01:00:14;;;;;;;;;8.50;7.00;;;;;21.41;45.46;101612.72;5069632;28;51067;-47
2022/01/02 01:02:49;;;;;;;;;9.25;8.50;;;;;21.41;45.22;101595.34;5064026;28;51836;-48
2022/01/02 01:05:19;;;;;;;;;10.25;9.25;;;;;21.39;45.61;101580.94;5066881;28;51377;-50
2022/01/02 01:07:47;;;;;;;;;9.00;7.50;;;;;21.38;45.22;101566.31;5066552;28;51199;-52
2022/01/02 01:10:13;;;;;;;;;10.75;9.50;;;;;21.38;45.70;101570.97;5066668;28;51184;-46
2022/01/02 01:12:39;;;;;;;;;12.25;11.00;;;;;21.37;45.43;101572.88;5066557;28;52564;-52
2022/01/02 01:15:07;;;;;;;;;8.25;8.00;;;;;21.37;45.17;101561.00;5066362;28;51409;-49
2022/01/02 01:17:34;;;;;;;;;11.75;8.50;;;;;21.36;45.55;101551.88;5065496;28;51347;-45
2022/01/02 01:20:00;;;;;;;;;12.50;9.75;;;;;21.36;45.71;101542.75;5062117;28;50920;-49
2022/01/02 01:22:25;;;;;;;;;8.50;7.75;;;;;21.33;45.71;101533.84;5068411;28;51889;-49
2022/01/02 01:24:51;;;;;;;;;8.50;8.50;;;;;21.35;45.20;101536.38;5065203;28;51090;-48
2022/01/02 01:27:16;;;;;;;;;9.00;9.00;;;;;21.33;45.35;101524.75;5068605;27;50973;-48
2022/01/02 01:29:41;;;;;;;;;10.25;7.25;;;;;21.32;45.22;101532.16;5066799;27;51164;-51
2022/01/02 01:32:08;;;;;;;;;9.50;9.00;;;;;21.32;45.42;101537.66;5068069;28;51928;-51
2022/01/02 01:34:34;;;;;;;;;8.00;8.00;;;;;21.31;45.34;101549.75;5065587;28;51145;-49
2022/01/02 01:37:00;;;;;;;;;8.00;7.50;;;;;21.30;45.70;101553.56;5067599;28;51173;-46
2022/01/02 01:39:26;;;;;;;;;9.00;7.50;;;;;21.30;45.49;101550.81;5066517;28;51093;-50
2022/01/02 01:41:53;;;;;;;;;10.50;7.25;;;;;21.30;45.77;101539.78;5065669;28;51108;-50
2022/01/02 01:46:47;;;;;;;;;10.50;9.75;;;;;21.28;45.39;101528.13;5066854;28;51140;-48
2022/01/02 01:49:19;;;;;;;;;10.50;8.75;;;;;21.28;45.31;101539.16;5066011;28;51064;-49
2022/01/02 01:51:46;;;;;;;;;8.25;8.25;;;;;21.27;45.74;101534.72;5060561;28;51441;-50
2022/01/02 01:54:11;;;;;;;;;8.00;7.25;;;;;21.27;45.29;101526.44;5067152;28;51156;-45
2022/01/02 01:56:38;;;;;;;;;10.25;7.50;;;;;21.27;45.83;101518.19;5068165;28;51503;-50
2022/01/02 01:59:04;;;;;;;;;6.75;6.75;;;;;21.26;45.92;101510.97;5065640;28;51315;-50
2022/01/02 02:01:29;;;;;;;;;8.50;6.75;;;;;21.26;45.42;101510.13;5061137;28;51230;-52
2022/01/02 02:03:56;;;;;;;;;7.00;7.00;;;;;21.24;45.81;101510.28;5070621;28;51133;-49
2022/01/02 02:06:22;;;;;;;;;8.50;8.50;;;;;21.24;45.42;101507.53;5064818;28;51244;-49
2022/01/02 02:08:47;;;;;;;;;8.00;7.25;;;;;21.23;45.96;101511.34;5068641;28;51054;-51
2022/01/02 02:11:14;;;;;;;;;6.75;6.25;;;;;21.23;45.74;101516.00;5064581;28;51682;-51
2022/01/02 02:13:40;;;;;;;;;9.50;7.00;;;;;21.22;45.91;101506.91;5066862;28;51090;-50
2022/01/02 02:16:06;;;;;;;;;5.00;5.00;;;;;21.22;45.51;101497.78;5066267;28;51191;-50
2022/01/02 02:18:31;;;;;;;;;11.25;8.75;;;;;21.22;45.97;101495.88;5067641;28;51393;-51
2022/01/02 02:20:57;;;;;;;;;6.00;6.00;;;;;21.20;45.49;101489.75;5062307;28;53181;-52
2022/01/02 02:23:22;;;;;;;;;7.00;7.00;;;;;21.20;45.72;101484.22;5067494;28;51101;-48
2022/01/02 02:25:48;;;;;;;;;8.00;7.00;;;;;21.19;45.69;101477.03;5065251;28;51053;-50
2022/01/02 02:28:15;;;;;;;;;7.00;7.00;;;;;21.20;45.35;101467.69;5063048;27;51033;-48
2022/01/02 02:30:44;;;;;;;;;7.75;7.50;;;;;21.19;45.91;101467.91;5062733;28;51847;-45
2022/01/02 02:33:11;;;;;;;;;6.00;6.00;;;;;21.18;45.54;101475.31;5060465;28;51129;-51
2022/01/02 02:35:38;;;;;;;;;10.50;8.00;;;;;21.18;45.59;101458.81;5065498;28;50910;-48
2022/01/02 02:38:07;;;;;;;;;9.25;8.50;;;;;21.17;46.03;101464.53;5072689;28;51250;-51
2022/01/02 02:40:34;;;;;;;;;7.00;6.00;;;;;21.16;46.17;101455.41;5063756;28;52776;-47
2022/01/02 02:49:02;;;;;;;;;5.25;4.50;;;;;21.15;45.55;101433.56;5065741;28;51105;-50
2022/01/02 02:51:54;;;;;;;;;7.25;7.25;;;;;21.14;45.67;101427.22;5063271;28;51807;-47
2022/01/02 02:54:25;;;;;;;;;8.00;7.00;;;;;21.13;45.95;101431.03;5083121;27;51115;-50
2022/01/02 02:56:59;;;;;;;;;7.25;6.25;;;;;21.11;45.95;101416.63;5068124;27;51073;-51
2022/01/02 02:59:29;;;;;;;;;7.00;7.00;;;;;21.12;46.29;101414.72;5065636;28;51217;-45
2022/01/02 03:01:56;;;;;;;;;6.50;6.50;;;;;21.11;46.04;101416.63;5065279;28;51150;-45
2022/01/02 03:04:23;;;;;;;;;7.00;7.00;;;;;21.10;45.64;101425.94;5072864;28;51113;-49
2022/01/02 03:06:49;;;;;;;;;6.00;6.00;;;;;21.10;45.97;101420.44;5068961;27;51281;-48
2022/01/02 03:09:17;;;;;;;;;8.00;7.75;;;;;21.10;46.14;101428.69;5063506;28;51245;-51
2022/01/02 03:11:43;;;;;;;;;5.50;5.50;;;;;21.10;46.08;101425.94;5067177;27;52738;-48
2022/01/02 03:14:11;;;;;;;;;7.50;7.50;;;;;21.10;45.73;101438.88;5061184;28;51082;-52
2022/01/02 03:16:38;;;;;;;;;6.75;5.75;;;;;21.08;45.82;101419.81;5065043;28;51101;-48
2022/01/02 03:19:04;;;;;;;;;7.00;7.00;;;;;21.08;45.57;101403.28;5066064;28;51333;-49
2022/01/02 03:21:29;;;;;;;;;6.00;6.00;;;;;21.08;45.73;101395.03;5070911;28;51823;-48
2022/01/02 03:23:54;;;;;;;;;7.25;7.25;;;;;21.08;46.10;101392.25;5067527;28;51045;-49
2022/01/02 03:26:20;;;;;;;;;5.75;5.50;;;;;21.07;45.82;101395.22;5063959;27;51217;-46
2022/01/02 03:28:46;;;;;;;;;4.00;4.00;;;;;21.06;45.77;101410.91;5067442;27;51267;-45
2022/01/02 03:31:12;;;;;;;;;6.00;6.00;;;;;21.06;45.76;101443.97;5065677;28;51793;-47
2022/01/02 03:33:38;;;;;;;;;6.75;6.75;;;;;21.07;46.14;101426.38;5061387;28;51082;-46
2022/01/02 03:36:04;;;;;;;;;6.00;5.00;;;;;21.06;45.77;101427.44;5065928;28;51205;-45
2022/01/02 03:38:29;;;;;;;;;5.75;5.00;;;;;21.04;45.75;101424.03;5066085;28;51084;-49
2022/01/02 03:40:55;;;;;;;;;8.00;8.00;;;;;21.04;46.23;101415.75;5061231;27;51735;-52
2022/01/02 03:43:20;;;;;;;;;5.00;5.00;;;;;21.02;45.81;101413.22;5062547;28;51143;-46
2022/01/02 03:45:46;;;;;;;;;6.00;5.75;;;;;21.03;45.62;101416.81;5068748;28;51099;-50
2022/01/02 03:48:11;;;;;;;;;7.00;5.25;;;;;21.02;46.04;101420.66;5067627;28;51119;-47
2022/01/02 03:50:37;;;;;;;;;6.25;6.25;;;;;21.02;46.13;101417.91;5069913;28;50879;-48
2022/01/02 03:53:03;;;;;;;;;7.00;6.50;;;;;21.01;46.22;101400.53;5057889;28;51124;-49
2022/01/02 03:55:29;;;;;;;;;5.75;5.75;;;;;21.01;45.82;101399.69;5060286;28;51210;-46
2022/01/02 03:57:54;;;;;;;;;6.25;5.00;;;;;21.00;45.61;101395.22;5067277;28;51087;-45
2022/01/02 04:00:20;;;;;;;;;7.00;7.00;;;;;21.00;45.64;101395.22;5068905;28;51056;-53
2022/01/02 04:02:46;;;;;;;;;6.50;6.00;;;;;20.99;46.03;101394.38;5067115;27;51116;-52
2022/01/02 04:05:13;;;;;;;;;6.25;5.50;;;;;20.99;46.19;101397.13;5064827;28;51179;-45
2022/01/02 04:07:39;;;;;;;;;6.00;5.50;;;;;20.98;46.07;101392.69;5067356;28;51243;-50
2022/01/02 04:10:07;;;;;;;;;7.00;5.25;;;;;20.98;46.08;101389.09;5068410;28;51182;-51
2022/01/02 04:12:33;;;;;;;;;7.75;7.50;;;;;20.97;46.20;101387.41;5069434;28;51534;-52
2022/01/02 04:14:59;;;;;;;;;9.00;7.00;;;;;20.98;45.75;101394.59;5063853;28;51214;-48
2022/01/02 04:17:25;;;;;;;;;6.00;6.00;;;;;20.96;46.08;101385.72;5061747;28;51356;-50
2022/01/02 04:19:51;;;;;;;;;4.00;4.00;;;;;20.97;45.97;101395.66;5064265;28;51721;-52
2022/01/02 04:22:17;;;;;;;;;5.00;3.75;;;;;20.96;46.27;101377.44;5069755;28;51341;-51
2022/01/02 04:24:42;;;;;;;;;5.25;5.25;;;;;20.95;45.79;101365.59;5066081;28;51153;-48
2022/01/02 04:27:08;;;;;;;;;4.75;4.75;;;;;20.94;45.84;101366.63;5065447;27;51306;-49
2022/01/02 04:29:33;;;;;;;;;5.50;4.50;;;;;20.94;45.84;101355.59;5059871;28;52635;-51
2022/01/02 04:31:59;;;;;;;;;7.25;6.50;;;;;20.95;45.76;101370.25;5063055;28;51063;-45
2022/01/02 04:34:24;;;;;;;;;6.00;6.00;;;;;20.94;46.07;101365.78;5057415;28;51137;-45
2022/01/02 04:36:50;;;;;;;;;6.00;5.00;;;;;20.94;46.11;101363.00;5067351;28;50990;-49
2022/01/02 04:39:15;;;;;;;;;6.00;6.00;;;;;20.94;46.03;101365.78;5066684;28;51058;-48
2022/01/02 04:41:41;;;;;;;;;4.75;4.75;;;;;20.92;45.73;101352.22;5061661;28;51038;-45
2022/01/02 04:44:06;;;;;;;;;6.25;6.25;;;;;20.93;45.99;101364.06;5063151;27;52095;-47
2022/01/02 04:46:31;;;;;;;;;6.25;5.00;;;;;20.93;45.88;101355.81;5060064;27;51252;-49
2022/01/02 04:48:57;;;;;;;;;4.75;3.75;;;;;20.92;45.85;101349.47;5062441;28;51906;-46
2022/01/02 04:51:22;;;;;;;;;5.25;4.25;;;;;20.91;46.13;101349.69;5069377;28;51255;-50
2022/01/02 04:53:48;;;;;;;;;6.25;5.25;;;;;20.92;46.13;101337.59;5062567;28;51255;-52
2022/01/02 04:56:15;;;;;;;;;4.75;4.75;;;;;20.91;45.66;101336.75;5062669;28;51349;-49
2022/01/02 04:58:42;;;;;;;;;5.75;5.50;;;;;20.91;45.71;101345.03;5060627;28;52026;-45
2022/01/02 05:01:11;;;;;;;;;5.00;5.00;;;;;20.90;46.15;101329.56;5064462;28;51428;-48
2022/01/02 05:03:41;;;;;;;;;5.00;5.00;;;;;20.90;45.73;101317.69;5063124;28;51118;-49
2022/01/02 05:06:10;;;;;;;;;4.75;4.75;;;;;20.89;46.13;101293.97;5066195;27;51326;-49
2022/01/02 05:08:36;;;;;;;;;6.00;6.00;;;;;20.89;46.05;101278.31;5062921;28;52049;-48
2022/01/02 05:11:02;;;;;;;;;6.00;5.00;;;;;20.88;46.19;101287.63;5071168;28;51324;-51
2022/01/02 05:13:27;;;;;;;;;4.50;4.50;;;;;20.88;45.77;101303.31;5063766;28;51825;-46
2022/01/02 05:15:53;;;;;;;;;4.50;4.50;;;;;20.87;45.67;101299.69;5065938;28;51243;-51
2022/01/02 05:18:18;;;;;;;;;4.00;4.00;;;;;20.88;45.84;101319.81;5070428;28;51777;-45
2022/01/02 05:20:46;;;;;;;;;6.25;6.00;;;;;20.87;46.14;101321.72;5066335;28;51200;-48
2022/01/02 05:23:12;;;;;;;;;6.25;5.00;;;;;20.87;45.75;101331.91;5064701;28;51085;-49
2022/01/02 05:25:38;;;;;;;;;4.25;4.25;;;;;20.86;45.75;101330.22;5058012;28;51563;-47
2022/01/02 05:28:03;;;;;;;;;6.50;6.50;;;;;20.87;46.19;101315.38;5078067;27;51140;-51
2022/01/02 05:30:28;;;;;;;;;4.00;4.00;;;;;20.87;46.27;101307.13;5064860;28;51124;-46
2022/01/02 05:32:54;;;;;;;;;5.75;5.75;;;;;20.86;45.78;101305.44;5068866;28;51264;-50
2022/01/02 05:35:19;;;;;;;;;5.75;4.50;;;;;20.86;46.13;101299.91;5072581;28;51098;-49
2022/01/02 05:37:44;;;;;;;;;4.75;4.25;;;;;20.85;45.93;101295.47;5066289;28;51715;-48
2022/01/02 05:40:10;;;;;;;;;4.75;4.75;;;;;20.84;45.92;101302.03;5066775;28;51377;-50
2022/01/02 05:42:35;;;;;;;;;5.50;5.50;;;;;20.84;45.82;101297.38;5063794;28;51180;-50
2022/01/02 05:45:01;;;;;;;;;6.00;5.25;;;;;20.83;46.14;101303.94;5071619;27;50995;-51
2022/01/02 05:47:26;;;;;;;;;3.75;3.75;;;;;20.83;45.83;101297.56;5066607;28;52141;-51
2022/01/02 05:49:51;;;;;;;;;6.25;5.00;;;;;20.83;46.09;101294.81;5066208;28;51007;-48
2022/01/02 05:52:17;;;;;;;;;5.00;5.00;;;;;20.82;45.91;101299.47;5070721;28;51230;-48
2022/01/02 05:54:42;;;;;;;;;6.75;4.50;;;;;20.82;45.69;101309.66;5068167;28;51018;-49
2022/01/02 05:57:07;;;;;;;;;5.00;5.00;;;;;20.82;46.04;101318.75;5065598;27;51703;-46
2022/01/02 05:59:33;;;;;;;;;3.75;3.75;;;;;20.80;45.77;101318.13;5063845;28;51176;-50
2022/01/02 06:01:58;;;;;;;;;7.50;4.75;;;;;20.82;45.88;101320.66;5067989;28;51064;-45
2022/01/02 06:04:24;;;;;;;;;5.00;3.50;;;;;20.82;45.77;101323.41;5061103;28;51149;-47
2022/01/02 06:06:49;;;;;;;;;6.75;6.75;;;;;20.82;45.75;101323.41;5062677;28;51647;-46
2022/01/02 06:09:14;;;;;;;;;5.00;4.50;;;;;20.80;45.69;101307.13;5065471;28;51143;-53
2022/01/02 06:11:40;;;;;;;;;4.50;4.50;;;;;20.80;46.01;101315.38;5064290;28;51137;-47
2022/01/02 06:14:05;;;;;;;;;5.00;4.25;;;;;20.79;46.21;101301.81;5061961;28;51056;-48
2022/01/02 06:16:32;;;;;;;;;6.00;5.50;;;;;20.79;45.91;101302.66;5061781;28;51724;-48
2022/01/02 06:18:57;;;;;;;;;4.25;4.25;;;;;20.79;45.88;101299.06;5065372;28;51145;-47
2022/01/02 06:21:23;;;;;;;;;5.00;5.00;;;;;20.78;46.21;101300.97;5068301;27;51217;-50
2022/01/02 06:23:48;;;;;;;;;5.50;4.25;;;;;20.78;45.98;101283.63;5061371;28;51050;-45
2022/01/02 06:26:13;;;;;;;;;4.50;3.25;;;;;20.78;45.83;101281.72;5065538;27;51940;-50
2022/01/02 06:28:39;;;;;;;;;3.75;3.75;;;;;20.78;46.19;101302.88;5063033;28;51243;-50
2022/01/02 06:31:04;;;;;;;;;6.00;4.50;;;;;20.78;45.79;101313.91;5066111;28;51146;-46
2022/01/02 06:33:29;;;;;;;;;2.50;2.50;;;;;20.78;46.08;101308.41;5065239;27;51798;-44
2022/01/02 06:35:55;;;;;;;;;4.00;4.00;;;;;20.77;46.15;101323.22;5063180;28;52290;-49
2022/01/02 06:38:21;;;;;;;;;4.00;4.00;;;;;20.78;46.29;101338.69;5060891;28;51204;-46
2022/01/02 06:40:48;;;;;;;;;5.75;5.00;;;;;20.78;45.72;101330.41;5063410;28;51491;-49
2022/01/02 06:43:15;;;;;;;;;4.50;3.75;;;;;20.77;46.07;101326.81;5057688;28;51185;-51
2022/01/02 06:45:42;;;;;;;;;4.00;4.00;;;;;20.78;46.14;101327.66;5064778;28;52776;-50
2022/01/02 06:48:07;;;;;;;;;4.00;3.50;;;;;20.77;45.89;101337.00;5061937;28;51425;-48
2022/01/02 06:50:33;;;;;;;;;6.00;6.00;;;;;20.77;45.84;101342.50;5065632;28;51096;-50
2022/01/02 06:52:58;;;;;;;;;3.25;3.25;;;;;20.75;45.90;101332.56;5067908;28;51293;-50
2022/01/02 06:55:23;;;;;;;;;4.75;4.50;;;;;20.76;46.22;101325.13;5067071;28;51845;-50
2022/01/02 06:57:49;;;;;;;;;4.75;4.75;;;;;20.75;46.10;101326.19;5060660;28;51080;-48
2022/01/02 07:00:14;;;;;;;;;4.25;4.25;;;;;20.74;45.92;101319.84;5069261;28;51633;-48
2022/01/02 07:02:40;;;;;;;;;4.00;4.00;;;;;20.73;46.29;101337.41;5072780;28;51762;-46
2022/01/02 07:05:05;;;;;;;;;6.00;3.75;;;;;20.74;45.79;101338.28;5065846;28;51792;-49
2022/01/02 07:07:31;;;;;;;;;5.50;3.50;;;;;20.74;45.76;101341.88;5072171;28;51226;-51
2022/01/02 07:09:56;;;;;;;;;4.00;3.00;;;;;20.73;45.76;101337.41;5071164;28;51099;-50
2022/01/02 07:12:23;;;;;;;;;6.75;6.25;;;;;20.72;45.69;101343.97;5066294;28;51124;-47
2022/01/02 07:14:49;;;;;;;;;10.00;8.00;;;;;20.72;44.36;101343.97;5062094;27;51288;-47
2022/01/02 07:17:15;;;;;;;;;11.75;9.50;;;;;20.69;43.79;101341.63;5061378;28;51650;-51
2022/01/02 07:19:40;;;;;;;;;8.00;7.00;;;;;20.65;43.70;101343.13;5058615;28;51093;-50
2022/01/02 07:22:05;;;;;;;;;8.25;7.25;;;;;20.62;43.45;101354.53;5069870;28;51048;-50
2022/01/02 07:24:31;;;;;;;;;5.75;5.75;;;;;20.60;43.22;101351.16;5067546;27;51874;-48
2022/01/02 07:26:56;;;;;;;;;9.00;8.00;;;;;20.58;43.43;101352.44;5072723;27;51085;-44
2022/01/02 07:29:22;;;;;;;;;8.00;7.00;;;;;20.55;43.24;101352.88;5060085;28;52691;-49
2022/01/02 07:31:47;;;;;;;;;9.25;7.50;;;;;20.54;43.02;101356.69;5066144;28;51024;-49
2022/01/02 07:34:12;;;;;;;;;7.00;6.00;;;;;20.52;42.97;101359.63;5065311;28;51611;-47
2022/01/02 07:36:43;;;;;;;;;8.50;7.00;;;;;20.50;42.83;101347.97;5064561;28;51123;-48
2022/01/02 07:39:08;;;;;;;;;7.25;7.25;;;;;20.49;42.71;101350.94;5061577;28;51138;-45
2022/01/02 07:41:34;;;;;;;;;9.75;7.75;;;;;20.46;42.93;101361.31;5057525;28;51393;-51
2022/01/02 07:44:00;;;;;;;;;11.25;8.50;;;;;20.45;42.63;101373.41;5067015;28;51452;-48
2022/01/02 07:46:26;;;;;;;;;8.25;6.50;;;;;20.43;42.63;101377.41;5062607;27;51470;-46
2022/01/02 07:48:52;;;;;;;;;9.75;7.75;;;;;20.41;42.65;101377.56;5060213;28;51332;-47
2022/01/02 07:51:17;;;;;;;;;10.75;8.25;;;;;20.39;42.65;101381.59;5067948;27;51170;-48
2022/01/02 07:53:43;;;;;;;;;8.25;7.00;;;;;20.37;42.73;101392.81;5061012;28;51737;-52
2022/01/02 07:56:08;;;;;;;;;9.00;8.50;;;;;20.36;42.50;101384.78;5065687;28;51094;-48
2022/01/02 07:58:33;;;;;;;;;8.25;7.25;;;;;20.37;42.84;101387.31;5057446;28;51117;-50
2022/01/02 08:00:59;;;;;;;;;6.50;6.00;;;;;20.42;42.91;101393.06;5068411;28;51217;-50
2022/01/02 08:03:24;;;;;;;;;7.00;6.75;;;;;20.51;42.52;101390.94;5063555;28;51806;-45
2022/01/02 08:05:49;;;;;;;;;6.75;6.25;;;;;20.60;42.93;101403.47;5071763;28;51019;-47
2022/01/02 08:08:15;;;;;;;;;4.50;4.50;;;;;20.69;43.12;101404.13;5063239;28;51105;-51
2022/01/02 08:10:40;;;;;;;;;3.75;3.75;;;;;20.79;43.21;101404.53;5059982;28;51251;-52
2022/01/02 08:13:06;;;;;;;;;6.00;5.50;;;;;20.89;42.99;101417.91;5066185;27;51637;-48
2022/01/02 08:15:32;;;;;;;;;7.50;6.00;;;;;20.99;43.20;101418.31;5077322;27;51064;-53
2022/01/02 08:17:58;;;;;;;;;6.25;6.25;;;;;21.07;42.79;101409.00;5060614;27;50959;-49
2022/01/02 08:20:24;;;;;;;;;6.75;5.00;;;;;21.16;43.17;101411.34;5059445;28;51402;-50
2022/01/02 08:22:49;;;;;;;;;5.00;5.00;;;;;21.25;43.22;101418.28;5061413;28;52136;-48
2022/01/02 08:25:14;;;;;;;;;4.00;4.00;;;;;21.30;43.24;101429.56;5061366;28;51227;-48
2022/01/02 08:27:40;;;;;;;;;7.25;6.00;;;;;21.35;42.74;101426.16;5064526;27;51123;-46
2022/01/02 08:30:06;;;;;;;;;6.75;6.75;;;;;21.37;42.83;101429.56;5063845;28;51192;-48
2022/01/02 08:32:31;;;;;;;;;6.00;4.75;;;;;21.39;43.30;101429.34;5062073;28;51104;-45
2022/01/02 08:34:57;;;;;;;;;4.50;4.50;;;;;21.41;42.89;101438.25;5062803;28;51279;-47
2022/01/02 08:37:22;;;;;;;;;4.25;4.25;;;;;21.44;43.36;101429.53;5062377;28;51246;-51
2022/01/02 08:39:48;;;;;;;;;4.25;4.00;;;;;21.50;43.65;101425.94;5062482;28;51926;-51
2022/01/02 08:42:13;;;;;;;;;4.50;4.00;;;;;21.58;43.36;101423.81;5064319;28;52457;-51
2022/01/02 08:44:41;;;;;;;;;4.25;4.25;;;;;21.63;43.10;101428.66;5062189;28;51362;-49
2022/01/02 08:47:07;;;;;;;;;5.25;4.00;;;;;21.66;43.44;101425.47;5059317;28;51282;-49
2022/01/02 08:49:32;;;;;;;;;9.25;4.75;;;;;21.68;43.13;101437.16;5060161;28;51009;-45
2022/01/02 08:51:58;;;;;;;;;5.00;5.00;;;;;21.70;42.98;101434.16;5063099;28;53113;-51
2022/01/02 08:54:24;;;;;;;;;2.25;2.25;;;;;21.71;43.13;101431.19;5070867;28;51090;-52
2022/01/02 08:56:49;;;;;;;;;8.50;6.75;;;;;21.72;43.38;101438.41;5070383;27;51289;-48
2022/01/02 08:59:14;;;;;;;;;4.00;3.00;;;;;21.72;43.77;101448.56;5068680;28;51122;-52
2022/01/02 09:01:40;;;;;;;;;5.75;5.00;;;;;21.75;43.95;101456.41;5065233;27;51299;-50
2022/01/02 09:04:05;;;;;;;;;7.75;5.00;;;;;21.81;43.83;101450.03;5062997;28;51414;-51
2022/01/02 09:06:31;;;;;;;;;5.50;5.00;;;;;21.83;43.42;101462.53;5066331;28;51119;-52
2022/01/02 09:08:56;;;;;;;;;5.00;5.00;;;;;21.86;43.78;101455.75;5063049;28;51223;-51
2022/01/02 09:11:23;;;;;;;;;6.25;6.00;;;;;21.85;43.52;101460.41;5068545;28;51694;-52
2022/01/02 09:13:48;;;;;;;;;8.00;7.00;;;;;21.84;43.65;101464.22;5062445;28;51259;-50
2022/01/02 09:16:13;;;;;;;;;8.75;7.00;;;;;21.83;44.15;101469.97;5057643;28;51279;-47
2022/01/02 09:18:39;;;;;;;;;7.00;5.50;;;;;21.82;43.50;101466.38;5066705;28;52178;-51
2022/01/02 09:21:04;;;;;;;;;4.25;4.25;;;;;21.83;43.88;101467.22;5065830;28;51849;-50
2022/01/02 09:23:30;;;;;;;;;6.75;6.00;;;;;21.85;43.38;101476.97;5064730;28;50969;-48
2022/01/02 09:25:55;;;;;;;;;8.75;7.25;;;;;21.91;43.93;101475.25;5063023;27;51223;-47
2022/01/02 09:28:21;;;;;;;;;4.75;4.75;;;;;21.94;43.42;101480.34;5070733;27;51391;-50
2022/01/02 09:30:46;;;;;;;;;6.25;6.25;;;;;21.96;43.77;101485.63;5062605;28;51661;-49
2022/01/02 09:33:11;;;;;;;;;5.25;5.25;;;;;21.96;43.49;101480.09;5061770;28;51111;-49
2022/01/02 09:35:38;;;;;;;;;5.50;5.50;;;;;21.97;43.25;101481.81;5063337;28;51191;-52
2022/01/02 09:38:03;;;;;;;;;6.25;5.50;;;;;21.93;43.33;101473.13;5070719;28;51511;-48
2022/01/02 09:40:31;;;;;;;;;4.00;4.00;;;;;21.92;43.16;101476.94;5060607;28;51735;-51
2022/01/02 09:42:57;;;;;;;;;7.00;5.25;;;;;21.91;43.33;101478.03;5066373;28;51305;-53
2022/01/02 09:45:23;;;;;;;;;6.75;6.50;;;;;21.92;43.45;101470.59;5062596;28;51081;-49
2022/01/02 09:47:50;;;;;;;;;5.00;5.00;;;;;21.95;43.58;101464.63;5066669;28;51446;-48
2022/01/02 09:50:18;;;;;;;;;5.00;5.00;;;;;22.01;44.17;101466.53;5064974;27;52055;-52
2022/01/02 09:52:44;;;;;;;;;5.00;5.00;;;;;22.05;44.21;101476.06;5062595;28;51210;-51
2022/01/02 09:55:10;;;;;;;;;5.25;5.25;;;;;22.07;43.58;101477.56;5068229;28;51187;-48
2022/01/02 09:57:44;;;;;;;;;6.75;6.50;;;;;22.08;43.89;101479.25;5062499;27;51174;-45
2022/01/02 10:00:11;;;;;;;;;6.25;6.00;;;;;22.08;44.07;101484.75;5062406;28;52113;-50
2022/01/02 10:02:56;;;;;;;;;7.25;5.00;;;;;22.06;44.16;101481.38;5069870;28;51237;-46
2022/01/02 10:05:24;;;;;;;;;9.50;6.00;;;;;22.05;44.08;101478.81;5063436;28;51082;-49
2022/01/02 10:07:51;;;;;;;;;6.75;5.75;;;;;22.01;44.24;101486.69;5072987;27;51715;-48
2022/01/02 10:10:16;;;;;;;;;8.50;8.25;;;;;22.00;44.21;101500.69;5058185;28;51174;-49
2022/01/02 10:12:42;;;;;;;;;8.00;7.00;;;;;21.98;44.12;101495.38;5060150;28;51002;-47
2022/01/02 10:15:16;;;;;;;;;5.00;5.00;;;;;22.01;44.33;101486.69;5059887;27;51271;-51
2022/01/02 10:18:04;;;;;;;;;6.00;6.00;;;;;22.06;44.12;101489.66;5064440;28;51267;-49
2022/01/02 10:20:33;;;;;;;;;4.00;4.00;;;;;22.10;44.19;101490.94;5057632;28;52806;-50
2022/01/02 10:23:13;;;;;;;;;9.25;6.00;;;;;22.10;44.01;101490.94;5064627;28;50903;-54
2022/01/02 10:25:44;;;;;;;;;7.50;6.75;;;;;22.09;44.26;101489.25;5068593;28;51143;-52
2022/01/02 10:28:35;;;;;;;;;9.00;7.00;;;;;22.08;44.08;101486.69;5066652;27;51389;-46
2022/01/02 10:31:01;;;;;;;;;8.25;5.75;;;;;22.05;44.48;101482.41;5058779;28;51975;-48
2022/01/02 10:33:31;;;;;;;;;7.50;5.75;;;;;22.04;44.15;101485.41;5070066;28;51114;-49
2022/01/02 10:36:01;;;;;;;;;7.00;5.50;;;;;22.04;44.14;101486.25;5067800;28;50970;-49
2022/01/02 10:38:28;;;;;;;;;8.00;8.00;;;;;22.00;44.32;101487.75;5063261;28;51317;-48
2022/01/02 10:40:54;;;;;;;;;6.25;5.50;;;;;21.99;44.26;101490.69;5066846;28;51812;-47
2022/01/02 10:43:33;;;;;;;;;6.25;6.25;;;;;22.03;44.33;101503.03;5059001;28;51180;-48
2022/01/02 10:46:04;;;;;;;;;5.00;5.00;;;;;22.07;44.22;101485.84;5060179;28;51483;-50
2022/01/02 10:48:42;;;;;;;;;7.25;6.75;;;;;22.14;44.19;101488.56;5070861;28;51226;-47
2022/01/02 10:51:16;;;;;;;;;7.00;7.00;;;;;22.15;44.36;101487.50;5063764;28;51135;-47
2022/01/02 10:53:57;;;;;;;;;8.50;7.00;;;;;22.14;43.89;101488.56;5072849;27;51109;-45
2022/01/02 10:56:24;;;;;;;;;8.75;5.25;;;;;22.13;43.78;101489.66;5064440;28;51638;-51
2022/01/02 10:58:49;;;;;;;;;7.25;5.75;;;;;22.10;43.94;101490.09;5071004;28;51247;-46
2022/01/02 11:01:15;;;;;;;;;6.75;6.50;;;;;22.10;44.58;101487.34;5066942;28;51089;-47
2022/01/02 11:03:44;;;;;;;;;6.50;6.25;;;;;22.08;43.96;101481.16;5065159;28;51084;-45
2022/01/02 11:06:13;;;;;;;;;5.75;5.75;;;;;22.06;44.49;101489.66;5065730;28;51196;-46
2022/01/02 11:08:43;;;;;;;;;10.25;6.00;;;;;22.04;44.13;101493.66;5068233;28;50904;-47
2022/01/02 11:11:09;;;;;;;;;8.75;7.75;;;;;22.02;44.68;101487.53;5058405;28;51998;-49
2022/01/02 11:13:35;;;;;;;;;11.25;7.25;;;;;22.05;44.72;101495.38;5065741;28;51124;-49
2022/01/02 11:16:04;;;;;;;;;9.25;7.00;;;;;22.11;44.78;101489.03;5063354;28;51087;-45
2022/01/02 11:18:32;;;;;;;;;10.00;8.25;;;;;22.14;44.40;101489.41;5062611;28;51382;-50
2022/01/02 11:20:57;;;;;;;;;8.00;5.75;;;;;22.18;44.79;101489.81;5059251;28;52727;-50
2022/01/02 11:23:29;;;;;;;;;9.25;7.25;;;;;22.16;44.44;101495.56;5063207;28;51304;-50
2022/01/02 11:26:21;;;;;;;;;10.50;6.75;;;;;22.15;44.37;101487.50;5064492;27;51089;-48
2022/01/02 11:28:48;;;;;;;;;7.50;6.75;;;;;22.11;44.75;101478.00;5058712;28;50934;-45
2022/01/02 11:31:28;;;;;;;;;6.75;6.00;;;;;22.09;45.12;101480.09;5062000;28;52052;-47
2022/01/02 11:33:54;;;;;;;;;7.00;6.00;;;;;22.06;44.71;101486.91;5058445;28;51216;-48